Time;durP1;ratioP1;P1;durP2;ratioP2;P2;SDS_P1;SDS_P2;PMS_P1;PMS_P2;Temp;Humidity;BMP_temperature;BMP_pressure;BME280_temperature;BME280_humidity;BME280_pressure;Samples;Min_cycle;Max_cycle;Signal;HPM_P1;HPM_P2
2020/12/17 00:00:52;;;;;;;13.80;10.70;;;7.80;82.20;;;8.15;69.56;97807.56;5063978;28;20222;-47
2020/12/17 00:03:19;;;;;;;13.50;9.77;;;7.80;82.30;;;8.17;69.59;97800.28;5064001;28;20048;-49
2020/12/17 00:05:47;;;;;;;17.20;9.57;;;7.90;82.50;;;8.18;69.77;97805.47;5063517;28;20044;-49
2020/12/17 00:08:18;;;;;;;13.57;10.03;;;8.00;82.40;;;8.20;69.50;97800.84;5064088;28;20256;-47
2020/12/17 00:10:46;;;;;;;13.87;9.97;;;8.00;82.30;;;8.20;69.36;97803.50;5063839;28;20237;-45
2020/12/17 00:13:13;;;;;;;12.60;9.70;;;8.00;82.00;;;8.19;69.57;97801.81;5063874;28;20243;-45
2020/12/17 00:15:41;;;;;;;15.40;10.57;;;8.00;81.90;;;8.20;69.64;97803.50;5063347;28;20052;-48
2020/12/17 00:18:08;;;;;;;12.23;9.20;;;8.00;81.80;;;8.21;69.41;97801.69;5064099;28;20228;-46
2020/12/17 00:20:36;;;;;;;13.40;9.30;;;8.00;81.70;;;8.20;69.38;97808.81;5063655;28;20048;-44
2020/12/17 00:23:03;;;;;;;13.03;9.43;;;7.90;81.30;;;8.16;68.97;97807.41;5063674;28;20051;-48
2020/12/17 00:25:31;;;;;;;11.97;9.43;;;7.80;81.30;;;8.11;69.37;97804.34;5063151;28;20059;-47
2020/12/17 00:27:58;;;;;;;12.53;9.20;;;7.70;81.60;;;8.06;69.08;97796.81;5063593;28;20055;-47
2020/12/17 00:30:26;;;;;;;14.50;10.03;;;7.70;81.80;;;8.01;69.01;97793.75;5045970;28;20061;-45
2020/12/17 00:32:53;;;;;;;14.63;9.83;;;7.70;81.80;;;8.00;69.07;97791.25;5063409;28;20055;-46
2020/12/17 00:35:21;;;;;;;13.43;9.10;;;7.70;81.80;;;7.98;68.82;97796.66;5062988;28;20037;-46
2020/12/17 00:37:49;;;;;;;16.90;11.53;;;7.60;81.80;;;7.98;68.93;97799.31;5063582;28;20351;-45
2020/12/17 00:40:20;;;;;;;12.90;9.10;;;7.70;81.80;;;7.97;69.32;97794.16;5063355;28;20049;-46
2020/12/17 00:42:47;;;;;;;15.13;11.70;;;7.70;81.60;;;7.97;68.72;97791.50;5063685;28;20056;-45
2020/12/17 00:45:16;;;;;;;15.00;11.47;;;7.70;81.50;;;7.97;68.91;97789.72;5063145;28;20064;-45
2020/12/17 00:47:44;;;;;;;13.67;9.93;;;7.70;81.30;;;7.94;69.07;97789.16;5063284;28;20070;-44
2020/12/17 00:50:12;;;;;;;13.97;10.87;;;7.60;81.00;;;7.91;68.71;97797.38;5061897;28;20048;-46
2020/12/17 00:52:41;;;;;;;15.67;10.73;;;7.50;81.10;;;7.86;68.89;97793.34;5063064;28;20044;-45
2020/12/17 00:55:09;;;;;;;20.27;13.73;;;7.60;81.00;;;7.85;68.54;97804.06;5062964;28;20342;-46
2020/12/17 00:57:37;;;;;;;17.37;12.03;;;7.50;80.90;;;7.80;68.75;97804.50;5062196;28;20240;-46
2020/12/17 01:00:07;;;;;;;19.10;12.93;;;7.40;80.90;;;7.78;68.71;97802.97;5062561;28;20053;-44
2020/12/17 01:02:35;;;;;;;17.17;11.47;;;7.40;80.90;;;7.72;68.54;97798.25;5062952;28;20057;-48
2020/12/17 01:05:06;;;;;;;16.20;11.37;;;7.30;81.00;;;7.67;68.28;97802.13;5044698;28;20286;-46
2020/12/17 01:07:34;;;;;;;14.93;10.30;;;7.30;80.90;;;7.59;68.15;97801.97;5062840;28;20051;-45
2020/12/17 01:10:03;;;;;;;15.83;11.10;;;7.20;80.80;;;7.54;68.36;97806.03;5062660;28;20229;-44
2020/12/17 01:12:31;;;;;;;13.27;9.57;;;7.10;81.00;;;7.46;68.25;97796.97;5062592;28;20059;-45
2020/12/17 01:14:59;;;;;;;16.90;10.43;;;7.00;80.90;;;7.43;68.74;97799.88;5062204;28;20044;-44
2020/12/17 01:17:26;;;;;;;16.50;10.43;;;7.00;81.20;;;7.39;68.05;97802.97;5062554;28;20044;-47
2020/12/17 01:19:54;;;;;;;19.03;10.00;;;7.00;81.00;;;7.35;67.96;97801.53;5062583;28;20653;-45
2020/12/17 01:22:21;;;;;;;14.00;10.03;;;6.90;81.10;;;7.33;68.44;97798.19;5062494;28;20268;-45
2020/12/17 01:24:48;;;;;;;16.33;11.27;;;6.90;81.30;;;7.30;68.56;97796.66;5061457;28;20099;-46
2020/12/17 01:27:16;;;;;;;14.23;10.50;;;6.90;81.20;;;7.30;68.56;97801.94;5062490;28;20043;-47
2020/12/17 01:29:43;;;;;;;17.90;11.70;;;6.90;81.10;;;7.26;68.92;97800.56;5062243;28;20049;-46
2020/12/17 01:32:11;;;;;;;12.77;9.50;;;6.90;81.10;;;7.21;68.81;97798.31;5061679;28;20057;-49
2020/12/17 01:34:38;;;;;;;15.50;10.83;;;6.90;81.10;;;7.20;68.63;97803.75;5062358;28;20045;-45
2020/12/17 01:37:19;;;;;;;18.20;11.63;;;6.90;81.20;;;7.19;68.78;97802.91;5062231;28;20047;-45
2020/12/17 01:39:47;;;;;;;12.87;8.63;;;6.80;81.10;;;7.19;68.88;97810.00;5062480;28;20059;-45
2020/12/17 01:42:14;;;;;;;9.07;6.80;;;6.80;81.60;;;7.21;69.19;97808.91;5062220;28;20231;-45
2020/12/17 01:44:43;;;;;;;8.00;6.23;;;6.90;82.00;;;7.26;68.65;97805.84;5062074;28;20040;-45
2020/12/17 01:47:10;;;;;;;7.07;4.87;;;7.00;81.90;;;7.32;69.12;97815.06;5061587;28;20063;-44
2020/12/17 01:49:39;;;;;;;7.27;5.10;;;7.10;82.00;;;7.36;69.25;97819.94;5059561;28;20051;-47
2020/12/17 01:52:07;;;;;;;7.77;4.87;;;7.20;81.80;;;7.42;69.35;97813.25;5044369;28;20074;-44
2020/12/17 01:54:34;;;;;;;8.33;5.67;;;7.20;81.70;;;7.48;69.40;97818.00;5061953;28;20035;-45
2020/12/17 01:57:05;;;;;;;8.87;5.20;;;7.30;81.60;;;7.52;69.45;97814.09;5060819;28;20055;-47
2020/12/17 01:59:47;;;;;;;7.67;5.03;;;7.40;81.60;;;7.58;69.30;97826.81;5061964;28;20041;-45
2020/12/17 02:02:17;;;;;;;8.27;4.90;;;7.50;81.40;;;7.63;69.19;97815.78;5061257;28;20229;-48
2020/12/17 02:04:45;;;;;;;6.97;5.37;;;7.50;81.40;;;7.69;69.48;97823.19;5061555;28;20348;-45
2020/12/17 02:07:13;;;;;;;8.10;6.30;;;7.60;81.20;;;7.74;69.15;97814.84;5061335;28;20056;-47
2020/12/17 02:09:41;;;;;;;8.13;5.67;;;7.60;81.00;;;7.77;68.77;97819.84;5054703;28;20227;-46
2020/12/17 02:12:08;;;;;;;7.33;5.03;;;7.70;81.00;;;7.82;69.51;97820.28;5041779;28;20363;-45
2020/12/17 02:14:36;;;;;;;9.10;6.67;;;7.70;80.90;;;7.85;69.37;97826.13;5041751;28;20344;-46
2020/12/17 02:17:03;;;;;;;9.23;5.40;;;7.80;80.80;;;7.88;69.17;97828.50;5041134;28;20056;-46
2020/12/17 02:19:30;;;;;;;7.73;5.77;;;7.80;80.70;;;7.88;68.75;97832.97;5041583;28;20061;-45
2020/12/17 02:21:58;;;;;;;7.63;5.93;;;7.70;80.50;;;7.88;69.16;97838.25;5041699;28;20498;-46
2020/12/17 02:24:26;;;;;;;9.63;5.87;;;7.70;80.10;;;7.86;68.73;97838.41;5041739;28;20055;-45
2020/12/17 02:26:53;;;;;;;9.33;6.70;;;7.70;80.20;;;7.84;68.74;97831.56;5041262;28;20365;-46
2020/12/17 02:29:21;;;;;;;11.93;7.23;;;7.60;80.40;;;7.83;68.79;97844.00;5041604;28;20049;-45
2020/12/17 02:31:49;;;;;;;11.93;6.50;;;7.60;80.50;;;7.83;68.76;97828.09;5041253;28;20046;-46
2020/12/17 02:34:17;;;;;;;9.27;6.93;;;7.60;80.70;;;7.85;68.72;97828.78;5041706;28;20041;-45
2020/12/17 02:36:44;;;;;;;10.30;6.63;;;7.70;80.80;;;7.86;68.82;97825.16;5041184;28;20049;-45
2020/12/17 02:39:11;;;;;;;13.00;7.30;;;7.70;80.70;;;7.87;69.24;97821.53;5041490;28;20261;-45
2020/12/17 02:41:39;;;;;;;10.77;7.60;;;7.80;80.70;;;7.89;69.24;97822.22;5041505;28;20055;-45
2020/12/17 02:44:07;;;;;;;11.53;8.43;;;7.70;80.60;;;7.90;69.21;97823.06;5041589;28;20057;-45
2020/12/17 02:46:34;;;;;;;13.43;8.23;;;7.80;80.60;;;7.92;68.84;97822.91;5040793;28;20049;-45
2020/12/17 02:49:02;;;;;;;11.33;7.93;;;7.80;80.60;;;7.92;68.76;97818.44;5041572;28;20242;-45
2020/12/17 02:51:29;;;;;;;12.00;7.60;;;7.80;80.50;;;7.94;68.59;97824.44;5041655;28;20052;-47
2020/12/17 02:53:57;;;;;;;15.37;9.63;;;7.80;80.50;;;7.97;68.87;97828.63;5041386;28;20061;-47
2020/12/17 02:56:24;;;;;;;11.80;8.20;;;7.80;80.50;;;7.98;69.06;97827.66;5041034;28;20046;-46
2020/12/17 02:58:51;;;;;;;14.40;8.73;;;7.80;80.30;;;7.98;68.85;97825.00;5041596;28;20047;-45
2020/12/17 03:01:19;;;;;;;13.50;8.70;;;7.80;80.30;;;7.99;69.14;97827.53;5041216;28;20060;-45
2020/12/17 03:03:46;;;;;;;10.90;7.60;;;7.80;80.10;;;8.00;68.64;97825.69;5041338;28;20053;-45
2020/12/17 03:06:14;;;;;;;13.67;8.63;;;7.80;80.30;;;7.99;68.56;97832.00;5040890;28;20067;-45
2020/12/17 03:08:42;;;;;;;12.30;7.77;;;7.80;80.30;;;7.99;69.12;97827.53;5041337;28;20053;-45
2020/12/17 03:11:09;;;;;;;12.43;7.97;;;7.80;80.30;;;8.00;68.73;97828.34;5041064;28;20045;-46
2020/12/17 03:13:36;;;;;;;11.43;6.97;;;7.80;80.10;;;8.00;68.97;97831.00;5041822;28;20060;-45
2020/12/17 03:16:04;;;;;;;13.37;8.20;;;7.90;80.10;;;7.99;68.56;97827.53;5044489;28;20051;-45
2020/12/17 03:18:31;;;;;;;11.90;7.70;;;7.80;79.80;;;7.99;68.59;97814.28;5044912;28;20280;-44
2020/12/17 03:20:59;;;;;;;9.87;6.93;;;7.80;79.80;;;7.98;68.46;97817.88;5044812;28;20053;-45
2020/12/17 03:23:26;;;;;;;10.33;6.90;;;7.80;79.80;;;7.99;68.76;97838.13;5044351;28;20067;-46
2020/12/17 03:25:53;;;;;;;10.63;6.87;;;7.80;79.80;;;7.99;68.82;97834.66;5044175;28;20065;-46
2020/12/17 03:28:21;;;;;;;12.90;7.43;;;7.80;79.70;;;7.98;68.51;97831.13;5027402;28;20249;-44
2020/12/17 03:30:48;;;;;;;9.93;7.17;;;7.80;79.80;;;7.99;68.72;97827.53;5044498;28;20345;-47
2020/12/17 03:33:16;;;;;;;11.97;7.77;;;7.80;79.80;;;7.99;68.51;97832.81;5044694;28;20341;-44
2020/12/17 03:35:44;;;;;;;14.37;8.83;;;7.80;79.80;;;7.98;68.73;97839.09;5044033;28;20055;-45
2020/12/17 03:38:11;;;;;;;11.67;7.87;;;7.80;79.70;;;7.95;68.70;97834.09;5044936;28;20045;-47
2020/12/17 03:40:38;;;;;;;11.70;7.23;;;7.80;79.70;;;7.95;68.52;97831.44;5044133;28;20053;-45
2020/12/17 03:43:06;;;;;;;9.97;6.63;;;7.80;79.70;;;7.95;68.81;97833.22;5044379;28;20056;-46
2020/12/17 03:45:33;;;;;;;8.63;6.13;;;7.70;79.60;;;7.94;68.56;97832.41;5043966;28;20045;-47
2020/12/17 03:48:01;;;;;;;9.93;6.30;;;7.70;79.70;;;7.93;68.08;97844.00;5044242;28;20051;-46
2020/12/17 03:50:28;;;;;;;10.73;6.37;;;7.70;79.50;;;7.95;68.11;97838.53;5044186;28;20233;-45
2020/12/17 03:52:55;;;;;;;8.43;6.40;;;7.70;79.30;;;7.94;68.18;97842.19;5044380;28;20054;-44
2020/12/17 03:55:23;;;;;;;9.97;7.07;;;7.70;79.20;;;7.90;67.94;97833.66;5043605;28;20053;-45
2020/12/17 03:57:50;;;;;;;9.73;6.77;;;7.70;79.30;;;7.89;68.49;97839.97;5044252;28;20053;-45
2020/12/17 04:00:18;;;;;;;9.00;6.60;;;7.60;79.00;;;7.85;68.02;97835.88;5044126;28;20314;-48
2020/12/17 04:02:46;;;;;;;8.13;6.33;;;7.60;79.20;;;7.81;68.04;97831.84;5043986;28;20277;-46
2020/12/17 04:05:13;;;;;;;10.57;7.20;;;7.60;79.20;;;7.79;68.01;97839.09;5044032;28;20049;-45
2020/12/17 04:07:41;;;;;;;10.63;7.60;;;7.50;79.00;;;7.74;68.37;97839.53;5044081;28;20049;-47
2020/12/17 04:10:08;;;;;;;10.53;6.83;;;7.50;79.20;;;7.70;68.12;97832.81;5026087;28;20057;-47
2020/12/17 04:12:36;;;;;;;11.00;6.57;;;7.50;79.20;;;7.67;68.16;97836.56;5044132;28;20049;-45
2020/12/17 04:15:03;;;;;;;9.77;6.90;;;7.40;79.30;;;7.67;68.19;97835.75;5043677;28;20265;-48
2020/12/17 04:17:31;;;;;;;10.13;7.27;;;7.40;79.10;;;7.66;67.61;97828.78;5043604;28;20041;-48
2020/12/17 04:19:58;;;;;;;9.90;7.07;;;7.40;79.00;;;7.63;67.82;97829.88;5043610;28;20245;-45
2020/12/17 04:22:25;;;;;;;10.57;6.80;;;7.50;79.10;;;7.64;67.97;97834.22;5043695;28;20241;-44
2020/12/17 04:24:53;;;;;;;10.20;7.30;;;7.40;78.90;;;7.63;68.23;97832.53;5043000;28;20053;-45
2020/12/17 04:27:20;;;;;;;7.90;5.73;;;7.50;78.90;;;7.63;67.98;97831.69;5043547;28;20053;-45
2020/12/17 04:29:48;;;;;;;7.77;6.17;;;7.40;78.80;;;7.63;68.09;97829.88;5043589;28;20088;-47
2020/12/17 04:32:15;;;;;;;7.60;5.53;;;7.40;78.60;;;7.64;67.86;97838.69;5043291;28;20037;-48
2020/12/17 04:34:44;;;;;;;8.67;5.87;;;7.40;78.60;;;7.66;67.94;97831.44;5043170;28;20387;-45
2020/12/17 04:37:12;;;;;;;7.53;5.23;;;7.40;78.40;;;7.67;67.62;97835.75;5043378;28;20071;-47
2020/12/17 04:39:39;;;;;;;7.47;4.67;;;7.50;78.40;;;7.71;67.68;97837.13;5043415;28;20376;-46
2020/12/17 04:42:08;;;;;;;9.10;4.53;;;7.50;78.20;;;7.73;67.53;97837.00;5043275;28;20049;-46
2020/12/17 04:44:37;;;;;;;8.20;6.17;;;7.50;78.00;;;7.74;67.34;97836.88;5025833;28;20116;-45
2020/12/17 04:47:05;;;;;;;9.37;5.73;;;7.50;77.90;;;7.73;67.66;97829.06;5025479;28;20049;-48
2020/12/17 04:49:55;;;;;;;7.10;5.30;;;7.50;77.80;;;7.71;67.79;97834.47;5042266;28;20252;-50
2020/12/17 04:52:24;;;;;;;7.67;5.03;;;7.50;77.90;;;7.69;67.90;97831.13;5042280;28;20057;-47
2020/12/17 04:54:52;;;;;;;8.20;5.03;;;7.50;77.90;;;7.67;67.82;97825.97;5025223;28;20053;-45
2020/12/17 04:57:25;;;;;;;8.83;6.03;;;7.50;77.80;;;7.65;67.48;97829.75;5042885;28;20045;-46
2020/12/17 04:59:53;;;;;;;9.33;5.60;;;7.50;77.60;;;7.65;67.29;97835.03;5042939;28;20045;-46
2020/12/17 05:02:22;;;;;;;7.43;5.17;;;7.40;77.60;;;7.62;67.40;97838.00;5042917;28;20086;-46
2020/12/17 05:04:53;;;;;;;7.87;5.37;;;7.40;77.50;;;7.60;67.30;97840.75;5042397;28;20049;-47
2020/12/17 05:07:24;;;;;;;7.03;5.00;;;7.40;77.50;;;7.58;67.42;97849.81;5042907;28;20045;-47
2020/12/17 05:09:51;;;;;;;6.63;4.93;;;7.40;77.60;;;7.55;67.40;97850.09;5042742;28;20059;-46
2020/12/17 05:12:20;;;;;;;7.90;5.33;;;7.30;77.80;;;7.54;66.92;97859.88;5042726;28;20043;-47
2020/12/17 05:14:48;;;;;;;6.23;4.63;;;7.30;77.80;;;7.54;67.14;97862.50;5042342;28;20053;-44
2020/12/17 05:17:16;;;;;;;7.33;5.10;;;7.30;78.40;;;7.51;66.97;97857.47;5025303;28;20043;-46
2020/12/17 05:19:44;;;;;;;9.13;5.40;;;7.20;77.40;;;7.50;67.39;97866.38;5042575;28;20341;-47
2020/12/17 05:22:14;;;;;;;7.30;4.87;;;7.20;77.60;;;7.48;67.24;97860.38;5042496;28;20045;-46
2020/12/17 05:24:46;;;;;;;8.60;5.90;;;7.20;77.60;;;7.47;67.63;97872.81;5042286;28;20336;-45
2020/12/17 05:27:15;;;;;;;6.60;5.40;;;7.20;77.60;;;7.46;67.12;97863.19;5042420;28;20072;-45
2020/12/17 05:29:43;;;;;;;6.30;4.20;;;7.10;77.60;;;7.44;67.23;97872.22;5042433;28;20286;-45
2020/12/17 05:32:18;;;;;;;14.77;8.37;;;7.10;77.60;;;7.42;67.08;97876.84;5072180;22;20041;-47
2020/12/17 05:34:45;;;;;;;9.53;5.33;;;7.10;77.20;;;7.38;67.31;97876.25;5037763;28;20239;-45
2020/12/17 05:37:13;;;;;;;6.60;4.70;;;7.00;77.50;;;7.38;67.27;97878.91;5061341;28;20063;-47
2020/12/17 05:40:00;;;;;;;9.10;6.60;;;7.00;77.60;;;7.35;66.75;97880.97;5062249;28;20071;-48
2020/12/17 05:42:28;;;;;;;12.77;9.07;;;7.00;77.50;;;7.30;66.51;97876.09;5062244;28;20079;-45
2020/12/17 05:44:56;;;;;;;10.20;6.00;;;7.00;77.70;;;7.28;67.22;97886.00;5061612;28;20053;-45
2020/12/17 05:47:23;;;;;;;14.43;11.10;;;7.00;77.70;;;7.27;66.46;97892.28;5044509;28;20075;-45
2020/12/17 05:49:51;;;;;;;17.30;13.47;;;7.00;77.40;;;7.24;66.46;97893.38;5062072;28;20049;-46
2020/12/17 05:52:22;;;;;;;14.93;9.23;;;6.90;77.40;;;7.20;67.16;97896.44;5044154;28;20049;-46
2020/12/17 05:54:56;;;;;;;14.77;10.13;;;6.90;77.30;;;7.20;66.42;97893.78;5061718;28;20040;-48
2020/12/17 05:57:23;;;;;;;8.00;5.90;;;6.80;77.10;;;7.17;66.33;97896.69;5062371;28;20220;-45
2020/12/17 05:59:59;;;;;;;10.17;7.27;;;6.80;77.30;;;7.16;66.44;97898.50;5061808;28;20344;-44
2020/12/17 06:02:35;;;;;;;8.17;6.03;;;6.80;77.00;;;7.16;66.98;97902.97;5041790;28;20059;-44
2020/12/17 06:05:14;;;;;;;6.47;3.97;;;6.80;77.40;;;7.17;66.99;97904.63;5061230;28;20068;-46
2020/12/17 06:07:45;;;;;;;5.70;4.30;;;6.90;77.40;;;7.21;67.27;97913.97;5061235;28;20079;-46
2020/12/17 06:10:28;;;;;;;6.10;3.50;;;6.90;77.10;;;7.23;66.65;97915.53;5061455;28;20059;-47
2020/12/17 06:12:58;;;;;;;6.43;3.93;;;7.00;76.50;;;7.29;66.58;97922.13;5061205;28;20341;-45
2020/12/17 06:15:31;;;;;;;5.50;3.43;;;7.10;76.70;;;7.32;67.04;97927.13;5061601;28;20051;-45
2020/12/17 06:18:03;;;;;;;6.53;4.10;;;7.10;76.20;;;7.32;65.92;97924.47;5061157;28;20063;-45
2020/12/17 06:20:33;;;;;;;5.07;3.20;;;7.10;75.60;;;7.34;66.49;97922.53;5061487;28;20045;-46
2020/12/17 06:23:06;;;;;;;5.13;3.60;;;7.20;76.00;;;7.36;66.59;97928.53;5061541;28;20052;-45
2020/12/17 06:25:35;;;;;;;5.22;3.95;;;7.20;76.00;;;7.37;66.43;97929.41;5061192;28;20045;-44
2020/12/17 06:28:03;;;;;;;5.13;3.53;;;7.20;75.70;;;7.37;66.04;97934.69;5061626;28;20086;-47
2020/12/17 06:30:37;;;;;;;5.83;4.07;;;7.20;75.70;;;7.37;66.00;97937.34;5060827;28;20057;-46
2020/12/17 06:33:06;;;;;;;4.83;3.30;;;7.20;75.30;;;7.39;66.38;97940.69;5043407;28;20052;-47
2020/12/17 06:35:54;;;;;;;5.87;4.63;;;7.20;75.30;;;7.38;65.83;97949.59;5061084;28;20045;-46
2020/12/17 06:38:25;;;;;;;5.03;3.10;;;7.20;73.60;;;7.39;66.20;97944.16;5060863;28;20053;-46
2020/12/17 06:40:53;;;;;;;4.87;3.23;;;7.20;75.20;;;7.38;65.82;97939.84;5044132;28;20041;-46
2020/12/17 06:43:39;;;;;;;5.03;3.70;;;7.20;74.40;;;7.37;65.70;97950.59;5060447;28;20341;-44
2020/12/17 06:46:32;;;;;;;4.87;3.53;;;7.20;74.00;;;7.40;65.78;97958.25;5059426;28;20053;-43
2020/12/17 06:49:00;;;;;;;4.83;3.70;;;7.20;74.10;;;7.40;65.03;97956.44;5064283;28;20049;-46
2020/12/17 06:51:33;;;;;;;4.87;2.90;;;7.20;74.80;;;7.39;65.43;97960.06;5064644;28;20253;-45
2020/12/17 06:54:28;;;;;;;4.07;3.03;;;7.20;74.10;;;7.39;65.36;97960.06;5065419;28;20055;-47
2020/12/17 06:57:13;;;;;;;12.57;6.17;;;7.20;74.80;;;7.37;65.18;97969.13;5064313;28;20055;-45
2020/12/17 06:59:41;;;;;;;;;;;7.20;73.50;;;7.34;65.19;97964.91;5065481;28;20051;-45
2020/12/17 07:02:13;;;;;;;4.50;2.80;;;7.10;73.60;;;7.35;66.07;97971.03;5063999;28;19916;-46
2020/12/17 07:04:41;;;;;;;4.37;2.90;;;7.10;75.00;;;7.36;65.79;97975.38;5064824;28;20071;-45
2020/12/17 07:07:20;;;;;;;4.67;3.10;;;7.20;74.40;;;7.37;65.49;97980.56;5046876;28;20051;-47
2020/12/17 07:09:53;;;;;;;4.83;2.93;;;7.20;74.60;;;7.33;65.10;97976.50;5065006;28;20252;-47
2020/12/17 07:12:36;;;;;;;3.80;2.40;;;7.20;73.60;;;7.36;65.08;97978.84;5065006;28;20049;-48
2020/12/17 07:15:25;;;;;;;4.40;2.60;;;7.20;74.00;;;7.37;65.16;97985.00;5064412;28;20045;-45
2020/12/17 07:17:52;;;;;;;3.60;2.57;;;7.20;74.70;;;7.36;65.90;97975.38;5050161;28;20045;-47
2020/12/17 07:20:32;;;;;;;4.27;2.70;;;7.20;74.70;;;7.39;65.27;97991.84;5064718;28;20240;-45
2020/12/17 07:23:03;;;;;;;4.30;2.37;;;7.20;73.80;;;7.41;65.27;97994.38;5064852;28;20067;-46
2020/12/17 07:25:37;;;;;;;3.20;2.00;;;7.30;74.80;;;7.42;65.01;97996.03;5047269;28;20059;-46
2020/12/17 07:28:05;;;;;;;3.25;2.08;;;7.30;74.40;;;7.44;65.53;98005.53;5064634;28;20055;-48
2020/12/17 07:30:33;;;;;;;3.70;2.13;;;7.40;74.20;;;7.47;65.05;98007.91;5064457;28;20072;-49
2020/12/17 07:33:00;;;;;;;4.63;2.33;;;7.40;74.10;;;7.48;65.04;98014.91;5064591;28;20040;-46
2020/12/17 07:35:27;;;;;;;3.40;2.30;;;7.40;75.20;;;7.49;65.55;98010.44;5064191;28;20053;-47
2020/12/17 07:38:00;;;;;;;4.40;2.40;;;7.40;74.10;;;7.49;64.89;98016.56;5064417;28;20417;-47
2020/12/17 07:40:35;;;;;;;3.87;2.40;;;7.40;74.30;;;7.49;65.36;98015.72;5064589;28;20044;-47
2020/12/17 07:43:16;;;;;;;3.60;2.60;;;7.40;73.70;;;7.50;65.43;98017.41;5046101;28;20056;-47
2020/12/17 07:45:51;;;;;;;3.17;2.10;;;7.40;73.70;;;7.48;64.84;98030.81;5063853;28;20049;-46
2020/12/17 07:48:46;;;;;;;3.17;2.30;;;7.40;74.20;;;7.51;65.10;98023.56;5063976;28;20044;-49
2020/12/17 07:51:14;;;;;;;5.23;2.73;;;7.40;73.60;;;7.53;65.04;98030.38;5062574;28;20056;-47
2020/12/17 07:53:43;;;;;;;4.00;2.97;;;7.40;73.40;;;7.54;65.31;98037.38;5063177;28;20053;-47
2020/12/17 07:56:11;;;;;;;3.10;2.13;;;7.50;74.40;;;7.58;64.84;98032.63;5063622;28;20382;-47
2020/12/17 07:58:40;;;;;;;5.27;3.47;;;7.50;74.20;;;7.60;65.27;98043.94;5063860;28;20045;-46
2020/12/17 08:01:09;;;;;;;3.93;1.97;;;7.50;74.00;;;7.62;65.01;98047.31;5062253;28;20052;-46
2020/12/17 08:03:53;;;;;;;4.77;2.63;;;7.50;74.00;;;7.61;65.31;98048.28;5063158;28;20059;-48
2020/12/17 08:06:25;;;;;;;3.53;2.17;;;7.50;73.10;;;7.61;64.80;98040.31;5063532;28;20111;-48
2020/12/17 08:08:58;;;;;;;5.07;2.10;;;7.50;73.30;;;7.64;65.23;98040.06;5046607;28;20310;-49
2020/12/17 08:11:37;;;;;;;2.55;2.00;;;7.60;74.00;;;7.68;65.18;98052.09;5063881;28;20044;-47
2020/12/17 08:14:07;;;;;;;4.47;2.10;;;7.70;74.10;;;7.72;65.17;98042.88;5063538;28;20260;-48
2020/12/17 08:16:35;;;;;;;4.70;2.30;;;7.70;73.80;;;7.76;65.34;98043.47;5063361;28;20045;-46
2020/12/17 08:19:03;;;;;;;6.67;3.27;;;7.70;74.10;;;7.81;65.24;98033.28;5063591;28;20045;-44
2020/12/17 08:21:32;;;;;;;3.67;2.43;;;7.80;73.80;;;7.86;65.09;98039.03;5062962;28;20226;-47
2020/12/17 08:23:59;;;;;;;3.87;1.90;;;7.90;74.10;;;7.90;65.50;98037.78;5063507;28;20053;-44
2020/12/17 08:26:29;;;;;;;3.47;2.30;;;8.00;73.70;;;7.96;64.84;98049.66;5063053;28;20063;-45
2020/12/17 08:28:56;;;;;;;3.87;2.40;;;8.00;73.30;;;7.98;65.19;98048.53;5063352;28;20041;-45
2020/12/17 08:31:29;;;;;;;3.37;2.07;;;8.10;73.30;;;8.01;65.11;98048.28;5063487;28;20248;-44
2020/12/17 08:34:03;;;;;;;3.90;2.03;;;8.10;73.50;;;8.04;64.84;98048.00;5046304;28;20059;-44
2020/12/17 08:36:37;;;;;;;2.70;2.10;;;8.10;72.50;;;8.05;64.92;98052.34;5063184;28;20256;-45
2020/12/17 08:39:13;;;;;;;4.18;1.95;;;8.10;72.80;;;8.06;65.12;98056.69;5063292;28;20253;-45
2020/12/17 08:41:54;;;;;;;3.13;1.65;;;8.10;72.70;;;8.10;64.92;98057.22;5063388;28;20045;-44
2020/12/17 08:44:28;;;;;;;3.53;2.00;;;8.10;72.90;;;8.13;64.79;98059.63;5044722;28;20040;-44
2020/12/17 08:47:05;;;;;;;3.20;2.40;;;8.10;73.00;;;8.13;64.38;98061.44;5044512;28;20079;-46
2020/12/17 08:49:33;;;;;;;5.07;3.00;;;8.20;72.70;;;8.15;64.44;98065.63;5046065;28;20051;-46
2020/12/17 08:52:01;;;;;;;4.50;2.57;;;8.20;73.00;;;8.17;64.54;98065.50;5061960;28;20051;-45
2020/12/17 08:54:32;;;;;;;3.17;2.00;;;8.20;73.20;;;8.20;64.70;98060.78;5062415;28;20233;-47
2020/12/17 08:57:11;;;;;;;11.03;4.83;;;8.30;73.30;;;8.21;64.24;98070.38;5054714;28;20041;-44
2020/12/17 08:59:39;;;;;;;14.73;7.43;;;8.30;72.60;;;8.28;64.77;98068.88;5061861;28;20049;-46
2020/12/17 09:02:07;;;;;;;4.60;2.83;;;8.40;73.20;;;8.35;65.03;98077.13;5062109;28;20051;-45
2020/12/17 09:04:35;;;;;;;3.87;2.30;;;8.50;73.20;;;8.41;64.71;98094.31;5060616;28;20057;-46
2020/12/17 09:07:03;;;;;;;6.60;2.43;;;8.60;72.70;;;8.46;64.99;98089.47;5055176;28;20262;-48
2020/12/17 09:09:33;;;;;;;3.93;2.33;;;8.60;72.80;;;8.54;64.69;98086.97;5056777;28;20063;-45
2020/12/17 09:12:06;;;;;;;3.13;2.30;;;8.70;72.80;;;8.62;64.88;98088.94;5060361;28;20044;-46
2020/12/17 09:14:39;;;;;;;2.93;1.90;;;8.80;72.70;;;8.67;64.76;98099.97;5061714;28;20049;-43
2020/12/17 09:17:16;;;;;;;2.77;2.10;;;8.90;72.20;;;8.72;64.70;98100.38;5060902;28;20265;-47
2020/12/17 09:19:46;;;;;;;3.97;1.90;;;8.90;72.50;;;8.77;64.63;98097.34;5060600;28;20067;-47
2020/12/17 09:22:23;;;;;;;3.70;2.20;;;9.00;72.60;;;8.83;64.09;98099.44;5061808;28;20053;-46
2020/12/17 09:24:54;;;;;;;3.40;2.23;;;9.00;72.60;;;8.89;64.65;98096.22;5043432;28;20051;-46
2020/12/17 09:27:33;;;;;;;3.97;1.90;;;9.10;72.70;;;8.95;64.43;98098.31;5060858;28;20067;-44
2020/12/17 09:30:16;;;;;;;3.03;2.00;;;9.20;72.30;;;9.02;64.18;98104.75;5062002;28;20052;-45
2020/12/17 09:32:55;;;;;;;4.27;2.43;;;9.20;71.80;;;9.09;64.29;98109.50;5061699;28;20047;-45
2020/12/17 09:35:28;;;;;;;3.77;2.23;;;9.30;72.20;;;9.13;64.55;98106.44;5060648;28;20074;-46
2020/12/17 09:38:06;;;;;;;3.95;2.17;;;9.30;72.50;;;9.17;63.86;98113.13;5060739;28;20067;-44
2020/12/17 09:40:38;;;;;;;2.80;2.00;;;9.40;71.80;;;9.21;64.36;98111.88;5061150;28;20044;-46
2020/12/17 09:43:12;;;;;;;3.67;1.93;;;9.40;71.90;;;9.25;64.43;98107.94;5061224;28;20544;-46
2020/12/17 09:45:43;;;;;;;4.17;2.53;;;9.40;72.10;;;9.28;64.28;98114.78;5060882;28;20048;-47
2020/12/17 09:48:22;;;;;;;3.43;2.13;;;9.40;72.50;;;9.31;64.40;98121.66;5060572;28;20056;-46
2020/12/17 09:51:02;;;;;;;2.63;2.03;;;9.40;72.40;;;9.33;64.32;98136.47;5061187;28;20052;-48
2020/12/17 09:53:33;;;;;;;3.43;2.00;;;9.50;72.00;;;9.37;64.45;98131.72;5061490;28;20044;-47
2020/12/17 09:56:01;;;;;;;3.27;2.40;;;9.50;72.40;;;9.40;64.39;98126.97;5072301;28;20050;-45
2020/12/17 09:58:28;;;;;;;2.93;2.30;;;9.60;72.20;;;9.42;63.34;98135.63;5061044;28;20055;-47
2020/12/17 10:00:56;;;;;;;3.50;2.30;;;9.70;70.90;;;9.46;64.23;98131.69;5061395;28;20051;-46
2020/12/17 10:03:24;;;;;;;2.67;2.07;;;9.60;71.80;;;9.50;63.93;98134.91;5042390;28;20053;-44
2020/12/17 10:05:51;;;;;;;4.60;2.73;;;9.70;71.90;;;9.55;64.08;98137.13;5060258;28;20056;-44
2020/12/17 10:08:18;;;;;;;3.63;2.17;;;9.80;71.80;;;9.59;64.06;98134.03;5051120;28;20052;-45
2020/12/17 10:10:46;;;;;;;2.80;2.17;;;9.80;71.80;;;9.65;64.17;98136.16;5057102;28;20051;-45
2020/12/17 10:13:13;;;;;;;5.33;2.27;;;9.90;71.20;;;9.70;63.83;98135.72;5061101;28;20037;-46
2020/12/17 10:15:41;;;;;;;3.43;2.83;;;9.90;71.40;;;9.75;63.82;98132.59;5060787;28;20067;-46
2020/12/17 10:18:08;;;;;;;3.83;2.60;;;10.00;71.60;;;9.78;63.94;98132.31;5060168;28;20043;-45
2020/12/17 10:20:36;;;;;;;4.50;2.80;;;10.00;71.30;;;9.84;63.96;98137.06;5060787;28;20051;-48
2020/12/17 10:23:03;;;;;;;4.17;2.50;;;10.10;71.20;;;9.89;63.62;98139.28;5062807;28;20123;-47
2020/12/17 10:25:31;;;;;;;9.97;3.63;;;10.10;71.20;;;9.93;63.69;98143.34;5064117;28;20049;-44
2020/12/17 10:28:01;;;;;;;3.20;2.50;;;10.20;71.10;;;10.00;63.37;98139.09;5046815;28;20044;-47
2020/12/17 10:30:28;;;;;;;4.13;2.43;;;10.30;70.90;;;10.06;63.64;98149.16;5064061;28;20049;-46
2020/12/17 10:32:56;;;;;;;3.97;2.33;;;10.40;71.10;;;10.11;63.27;98144.25;5064384;28;20053;-47
2020/12/17 10:35:24;;;;;;;3.77;2.50;;;10.40;70.80;;;10.17;62.43;98151.66;5064022;28;20048;-46
2020/12/17 10:37:52;;;;;;;4.73;3.07;;;10.50;69.20;;;10.22;63.08;98151.22;5064383;28;20049;-44
2020/12/17 10:40:20;;;;;;;4.27;2.67;;;10.50;70.10;;;10.27;63.09;98164.06;5064056;28;20252;-46
2020/12/17 10:43:02;;;;;;;3.17;2.27;;;10.60;70.30;;;10.08;60.60;98186.25;5065000;28;20049;-45